createdAt,value
2022-09-07T00:02:00.690Z,56.95
2022-09-07T00:04:30.161Z,56.45
2022-09-07T00:06:59.570Z,59.35
2022-09-07T00:09:30.506Z,66.63
2022-09-07T00:11:59.803Z,62.00
2022-09-07T00:14:29.085Z,235.18
2022-09-07T00:16:58.375Z,66.72
2022-09-07T00:19:30.805Z,69.38
2022-09-07T00:22:00.088Z,61.92
2022-09-07T00:24:32.535Z,79.90
2022-09-07T00:27:01.880Z,82.50
2022-09-07T00:29:31.260Z,68.50
2022-09-07T00:32:00.498Z,53.10
2022-09-07T00:34:29.815Z,51.10
2022-09-07T00:36:59.025Z,53.22
2022-09-07T00:39:30.125Z,52.33
2022-09-07T00:41:59.493Z,44.63
2022-09-07T00:45:04.208Z,50.45
2022-09-07T00:47:39.906Z,53.53
2022-09-07T00:52:42.959Z,62.28
2022-09-07T00:55:18.748Z,60.80
2022-09-07T01:00:19.529Z,55.38
2022-09-07T01:02:50.855Z,60.30
2022-09-07T01:05:26.449Z,54.10
2022-09-07T01:07:56.754Z,52.47
2022-09-07T01:10:32.336Z,52.80
2022-09-07T01:13:01.982Z,52.80
2022-09-07T01:15:41.468Z,42.13
2022-09-07T01:18:17.262Z,41.50
2022-09-07T01:21:02.182Z,49.53
2022-09-07T01:23:59.531Z,40.55
2022-09-07T01:27:13.669Z,33.33
2022-09-07T01:29:54.658Z,26.15
2022-09-07T01:32:33.275Z,22.77
2022-09-07T01:35:07.241Z,26.73
2022-09-07T01:37:55.033Z,28.17
2022-09-07T01:40:36.479Z,30.85
2022-09-07T01:43:11.965Z,32.15
2022-09-07T01:45:46.674Z,31.17
2022-09-07T01:48:20.820Z,26.30
2022-09-07T01:50:54.402Z,20.67
2022-09-07T01:53:30.095Z,25.55
2022-09-07T01:58:34.553Z,21.13
2022-09-07T02:01:09.955Z,26.52
2022-09-07T02:03:46.879Z,21.40
2022-09-07T02:06:22.039Z,16.38
2022-09-07T02:08:56.728Z,15.20
2022-09-07T02:11:32.932Z,19.97
2022-09-07T02:14:07.017Z,22.02
2022-09-07T02:16:46.151Z,23.55
2022-09-07T02:19:19.700Z,19.20
2022-09-07T02:21:53.592Z,16.70
2022-09-07T02:24:27.721Z,17.70
2022-09-07T02:27:00.706Z,14.93
2022-09-07T02:29:31.096Z,12.48
2022-09-07T02:32:02.244Z,18.45
2022-09-07T02:34:33.402Z,19.58
2022-09-07T02:37:05.153Z,21.77
2022-09-07T02:39:35.355Z,20.92
2022-09-07T02:42:04.752Z,24.38
2022-09-07T02:44:55.752Z,25.17
2022-09-07T02:52:03.783Z,21.33
2022-09-07T02:54:49.558Z,16.40
2022-09-07T02:57:29.355Z,16.98
2022-09-07T03:00:26.655Z,16.73
2022-09-07T03:03:19.614Z,17.70
2022-09-07T03:05:56.989Z,13.60
2022-09-07T03:08:32.231Z,12.60
2022-09-07T03:11:02.691Z,16.13
2022-09-07T03:13:33.321Z,17.23
2022-09-07T03:16:02.749Z,16.80
2022-09-07T03:18:33.889Z,19.42
2022-09-07T03:21:06.498Z,16.13
2022-09-07T03:23:39.043Z,18.20
2022-09-07T03:26:10.528Z,18.27
2022-09-07T03:28:39.791Z,17.30
2022-09-07T03:31:09.095Z,20.10
2022-09-07T03:33:39.919Z,15.32
2022-09-07T03:36:09.460Z,15.38
2022-09-07T03:38:38.749Z,17.25
2022-09-07T03:41:10.215Z,17.33
2022-09-07T03:43:39.492Z,24.05
2022-09-07T03:46:10.860Z,21.33
2022-09-07T03:48:41.669Z,17.88
2022-09-07T03:51:12.964Z,15.75
2022-09-07T03:53:44.261Z,18.30
2022-09-07T03:56:15.124Z,16.77
2022-09-07T03:58:44.447Z,15.10
2022-09-07T04:01:17.520Z,20.02
2022-09-07T04:03:49.174Z,20.88
2022-09-07T04:06:19.202Z,23.90
2022-09-07T04:08:48.511Z,21.90
2022-09-07T04:11:20.047Z,24.15
2022-09-07T04:13:49.430Z,23.52
2022-09-07T04:16:21.108Z,21.83
2022-09-07T04:18:55.165Z,20.65
2022-09-07T04:21:25.413Z,24.52
2022-09-07T04:23:55.270Z,23.75
2022-09-07T04:26:26.086Z,26.77
2022-09-07T04:28:56.157Z,23.63
2022-09-07T04:31:26.048Z,19.65
2022-09-07T04:33:57.370Z,21.10
2022-09-07T04:36:28.615Z,22.45
2022-09-07T04:38:58.667Z,22.85
2022-09-07T04:41:28.964Z,22.50
2022-09-07T04:43:59.918Z,22.80
2022-09-07T04:46:30.825Z,20.15
2022-09-07T04:49:03.178Z,18.05
2022-09-07T04:51:34.001Z,19.90
2022-09-07T04:54:04.442Z,26.58
2022-09-07T04:56:34.167Z,23.88
2022-09-07T04:59:04.084Z,20.13
2022-09-07T05:01:33.453Z,17.92
2022-09-07T05:04:05.469Z,17.48
2022-09-07T05:06:34.862Z,19.50
2022-09-07T05:09:04.242Z,20.85
2022-09-07T05:11:35.074Z,18.52
2022-09-07T05:14:05.447Z,24.45
2022-09-07T05:16:34.798Z,22.30
2022-09-07T05:19:07.434Z,24.75
2022-09-07T05:21:37.473Z,23.45
2022-09-07T05:24:07.639Z,26.40
2022-09-07T05:26:40.222Z,23.67
2022-09-07T05:31:59.490Z,22.85
2022-09-07T05:34:30.761Z,22.38
2022-09-07T05:37:00.772Z,28.35
2022-09-07T05:39:30.331Z,25.00
2022-09-07T05:41:59.690Z,24.85
2022-09-07T05:44:45.059Z,25.90
2022-09-07T05:47:15.318Z,30.85
2022-09-07T05:49:46.099Z,31.30
2022-09-07T05:52:15.404Z,32.40
2022-09-07T05:54:44.622Z,34.83
2022-09-07T05:57:14.294Z,28.83
2022-09-07T05:59:44.607Z,33.17
2022-09-07T06:02:16.377Z,24.45
2022-09-07T06:04:48.050Z,24.45
2022-09-07T06:07:22.170Z,29.23
2022-09-07T06:12:44.409Z,25.55
2022-09-07T06:15:18.185Z,26.73
2022-09-07T06:17:47.627Z,29.85
2022-09-07T06:20:19.761Z,29.58
2022-09-07T06:22:49.045Z,34.67
2022-09-07T06:25:18.523Z,25.35
2022-09-07T06:27:50.471Z,29.98
2022-09-07T06:30:19.931Z,29.77
2022-09-07T06:32:49.722Z,30.25
2022-09-07T06:35:20.595Z,30.88
2022-09-07T06:37:49.909Z,35.03
2022-09-07T06:40:20.312Z,32.00
2022-09-07T06:42:50.675Z,33.60
2022-09-07T06:45:20.021Z,34.22
2022-09-07T06:47:49.386Z,26.27
2022-09-07T06:50:20.280Z,33.08
2022-09-07T06:55:45.735Z,27.02
2022-09-07T06:58:15.043Z,30.23
2022-09-07T07:00:44.462Z,27.17
2022-09-07T07:03:15.391Z,31.05
2022-09-07T07:06:15.934Z,33.72
2022-09-07T07:08:47.974Z,33.28
2022-09-07T07:11:18.197Z,45.95
2022-09-07T07:13:47.688Z,28.90
2022-09-07T07:16:19.169Z,40.58
2022-09-07T07:18:52.849Z,35.63
2022-09-07T07:21:48.570Z,30.30
2022-09-07T07:24:21.147Z,35.63
2022-09-07T07:26:53.036Z,31.63
2022-09-07T07:29:27.971Z,34.88
2022-09-07T07:31:58.476Z,35.85
2022-09-07T07:34:27.902Z,32.58
2022-09-07T07:36:58.879Z,41.67
2022-09-07T07:42:17.695Z,38.42
2022-09-07T07:44:47.349Z,41.25
2022-09-07T07:47:18.883Z,40.45
2022-09-07T07:50:30.460Z,46.67
2022-09-07T07:52:50.272Z,39.65
2022-09-07T07:58:09.062Z,45.50
2022-09-07T08:00:53.888Z,46.53
2022-09-07T08:03:26.885Z,41.33
2022-09-07T08:05:56.817Z,37.67
2022-09-07T08:08:28.422Z,39.72
2022-09-07T08:10:57.737Z,35.20
2022-09-07T08:13:27.023Z,41.53
2022-09-07T08:16:03.245Z,37.55
2022-09-07T08:18:32.664Z,43.95
2022-09-07T08:21:02.714Z,28.50
2022-09-07T08:23:34.203Z,33.55
2022-09-07T08:26:03.846Z,24.17
2022-09-07T08:28:34.902Z,21.58
2022-09-07T08:31:07.784Z,22.05
2022-09-07T08:33:38.211Z,20.13
2022-09-07T08:36:10.271Z,21.25
2022-09-07T08:38:41.580Z,31.98
2022-09-07T08:41:35.441Z,25.95
2022-09-07T08:44:07.116Z,31.42
2022-09-07T08:46:42.904Z,29.67
2022-09-07T08:49:20.908Z,25.50
2022-09-07T08:51:55.425Z,32.45
2022-09-07T08:54:29.121Z,41.60
2022-09-07T09:00:00.877Z,28.55
2022-09-07T09:02:38.322Z,36.25
2022-09-07T09:05:36.806Z,33.08
2022-09-07T09:08:23.143Z,34.78
2022-09-07T09:11:02.222Z,33.50
2022-09-07T09:13:43.904Z,32.20
2022-09-07T09:16:20.503Z,35.97
2022-09-07T09:19:03.127Z,40.05
2022-09-07T09:21:32.581Z,30.75
2022-09-07T09:24:24.982Z,27.40
2022-09-07T09:27:07.224Z,27.15
2022-09-07T09:29:36.633Z,22.38
2022-09-07T09:32:36.780Z,25.65
2022-09-07T09:35:17.758Z,23.23
2022-09-07T09:37:49.418Z,21.90
2022-09-07T09:40:32.536Z,32.33
2022-09-07T09:43:09.411Z,17.85
2022-09-07T09:48:40.507Z,26.88
2022-09-07T09:54:06.345Z,25.88
2022-09-07T09:56:41.611Z,38.67
2022-09-07T10:05:29.176Z,27.92
2022-09-07T10:07:58.994Z,36.95
2022-09-07T10:10:30.009Z,33.38
2022-09-07T10:13:00.103Z,37.83
2022-09-07T10:15:40.416Z,23.67
2022-09-07T10:18:21.782Z,26.30
2022-09-07T10:20:55.812Z,29.10
2022-09-07T10:23:29.719Z,26.02
2022-09-07T10:25:59.138Z,29.80
2022-09-07T10:29:06.320Z,28.98
2022-09-07T10:31:26.295Z,27.00
2022-09-07T10:37:02.888Z,30.98
2022-09-07T10:39:41.972Z,25.50
2022-09-07T10:42:29.487Z,29.30
2022-09-07T10:45:13.468Z,26.95
2022-09-07T10:47:57.374Z,26.05
2022-09-07T10:50:33.099Z,20.77
2022-09-07T10:53:40.656Z,20.00
2022-09-07T10:56:15.085Z,20.27
2022-09-07T10:59:02.786Z,25.05
2022-09-07T11:01:44.802Z,24.40
2022-09-07T11:04:34.947Z,26.52
2022-09-07T11:07:15.768Z,27.80
2022-09-07T11:10:01.451Z,28.15
2022-09-07T11:12:35.500Z,23.50
2022-09-07T11:15:16.250Z,33.83
2022-09-07T11:17:53.242Z,26.50
2022-09-07T11:20:31.600Z,26.65
2022-09-07T11:23:11.342Z,21.73
2022-09-07T11:25:48.028Z,44.78
2022-09-07T11:28:23.019Z,26.48
2022-09-07T11:31:00.281Z,25.08
2022-09-07T11:33:36.319Z,23.40
2022-09-07T11:36:13.309Z,19.85
2022-09-07T11:38:46.715Z,22.50
2022-09-07T11:41:23.963Z,22.00
2022-09-07T11:44:02.733Z,27.50
2022-09-07T11:46:38.111Z,30.33
2022-09-07T11:49:20.047Z,29.83
2022-09-07T11:51:55.386Z,26.42
2022-09-07T11:54:49.240Z,31.52
2022-09-07T11:57:38.662Z,25.60
2022-09-07T12:00:14.349Z,33.35
2022-09-07T12:03:12.700Z,30.38
2022-09-07T12:06:13.045Z,20.73
2022-09-07T12:08:58.869Z,22.25
2022-09-07T12:11:56.174Z,27.63
2022-09-07T12:14:37.869Z,25.13
2022-09-07T12:17:23.462Z,24.27
2022-09-07T12:20:15.866Z,22.15
2022-09-07T12:23:03.717Z,24.13
2022-09-07T12:25:36.122Z,26.02
2022-09-07T12:28:05.627Z,19.45
2022-09-07T12:30:59.259Z,26.83
2022-09-07T12:33:38.678Z,19.73
2022-09-07T12:36:51.661Z,29.42
2022-09-07T12:39:25.680Z,19.77
2022-09-07T12:42:32.929Z,16.73
2022-09-07T12:45:35.569Z,20.65
2022-09-07T12:48:12.820Z,28.58
2022-09-07T12:50:51.862Z,68.72
2022-09-07T12:53:32.621Z,19.17
2022-09-07T12:56:27.454Z,22.40
2022-09-07T12:59:20.260Z,12.88
2022-09-07T13:02:01.384Z,19.38
2022-09-07T13:04:52.825Z,13.27
2022-09-07T13:07:42.083Z,13.23
2022-09-07T13:10:30.892Z,15.23
2022-09-07T13:13:05.663Z,9.98
2022-09-07T13:15:42.715Z,17.05
2022-09-07T13:18:15.678Z,18.85
2022-09-07T13:20:45.144Z,16.77
2022-09-07T13:23:31.996Z,17.33
2022-09-07T13:26:02.606Z,14.05
2022-09-07T13:28:42.103Z,11.95
2022-09-07T13:31:28.895Z,13.50
2022-09-07T13:34:19.011Z,17.55
2022-09-07T13:36:50.456Z,10.95
2022-09-07T13:39:23.517Z,12.50
2022-09-07T13:41:59.393Z,15.30
2022-09-07T13:44:33.024Z,15.70
2022-09-07T13:47:19.486Z,18.30
2022-09-07T13:50:19.994Z,17.67
2022-09-07T13:53:15.208Z,15.93
2022-09-07T13:55:52.617Z,11.73
2022-09-07T13:58:27.816Z,14.05
2022-09-07T14:03:30.563Z,16.52
2022-09-07T14:06:29.092Z,19.38
2022-09-07T14:09:00.054Z,18.95
2022-09-07T14:11:31.364Z,11.95
2022-09-07T14:14:18.780Z,12.23
2022-09-07T14:16:51.213Z,12.95
2022-09-07T14:19:26.499Z,14.75
2022-09-07T14:24:32.917Z,32.20
2022-09-07T14:27:02.539Z,10.52
2022-09-07T14:29:33.345Z,11.10
2022-09-07T14:32:05.487Z,10.77
2022-09-07T14:34:45.168Z,14.90
2022-09-07T14:37:17.041Z,17.60
2022-09-07T14:39:51.111Z,13.48
2022-09-07T14:42:23.850Z,9.40
2022-09-07T14:45:13.561Z,12.32
2022-09-07T14:47:42.868Z,12.13
2022-09-07T14:50:22.286Z,16.08
2022-09-07T14:55:44.570Z,16.73
2022-09-07T14:58:24.307Z,13.10
2022-09-07T15:03:56.673Z,15.45
2022-09-07T15:07:06.091Z,13.27
2022-09-07T15:09:38.401Z,13.32
2022-09-07T15:12:27.229Z,13.82
2022-09-07T15:15:12.997Z,16.02
2022-09-07T15:17:43.795Z,14.27
2022-09-07T15:20:37.162Z,13.00
2022-09-07T15:23:11.182Z,14.90
2022-09-07T15:25:41.225Z,18.02
2022-09-07T15:31:56.779Z,17.25
2022-09-07T15:34:31.326Z,16.98
2022-09-07T15:37:02.672Z,18.20
2022-09-07T15:39:36.055Z,17.75
2022-09-07T15:44:54.904Z,17.85
2022-09-07T15:50:13.988Z,23.05
2022-09-07T15:52:46.214Z,13.20
2022-09-07T15:55:18.276Z,14.70
2022-09-07T15:57:51.248Z,19.55
2022-09-07T16:00:22.287Z,14.20
2022-09-07T16:03:08.495Z,15.00
2022-09-07T16:05:41.345Z,16.75
2022-09-07T16:08:25.976Z,14.25
2022-09-07T16:11:05.762Z,14.23
2022-09-07T16:13:35.608Z,13.18
2022-09-07T16:16:08.335Z,10.40
2022-09-07T16:18:38.249Z,15.73
2022-09-07T16:21:11.872Z,12.10
2022-09-07T16:23:43.337Z,16.10
2022-09-07T16:26:14.360Z,13.38
2022-09-07T16:28:44.819Z,20.73
2022-09-07T16:31:17.044Z,17.80
2022-09-07T16:33:46.370Z,17.27
2022-09-07T16:36:17.716Z,14.00
2022-09-07T16:38:48.945Z,17.85
2022-09-07T16:41:21.738Z,16.13
2022-09-07T16:43:50.949Z,10.63
2022-09-07T16:46:21.570Z,11.43
2022-09-07T16:48:51.971Z,19.42
2022-09-07T16:51:23.188Z,13.98
2022-09-07T16:53:53.910Z,22.02
2022-09-07T16:56:27.160Z,16.23
2022-09-07T16:58:58.233Z,11.88
2022-09-07T17:01:29.291Z,30.15
2022-09-07T17:03:58.718Z,12.80
2022-09-07T17:06:29.871Z,18.60
2022-09-07T17:09:00.561Z,16.10
2022-09-07T17:11:33.153Z,12.30
2022-09-07T17:14:05.475Z,15.38
2022-09-07T17:16:36.826Z,12.60
2022-09-07T17:21:57.730Z,17.85
2022-09-07T17:24:26.986Z,12.63
2022-09-07T17:26:59.507Z,13.27
2022-09-07T17:29:30.823Z,14.55
2022-09-07T17:34:51.350Z,15.02
2022-09-07T17:37:20.856Z,9.55
2022-09-07T17:39:50.032Z,13.63
2022-09-07T17:42:20.870Z,9.95
2022-09-07T17:44:53.934Z,9.77
2022-09-07T17:47:23.423Z,13.00
2022-09-07T17:49:52.504Z,8.73
2022-09-07T17:52:21.639Z,15.57
2022-09-07T17:54:50.817Z,15.80
2022-09-07T17:57:21.592Z,12.10
2022-09-07T18:02:40.101Z,14.30
2022-09-07T18:05:10.759Z,12.63
2022-09-07T18:07:40.003Z,10.52
2022-09-07T18:10:09.911Z,12.60
2022-09-07T18:12:40.616Z,13.50
2022-09-07T18:15:10.503Z,12.95
2022-09-07T18:17:39.907Z,16.25
2022-09-07T18:20:09.887Z,11.35
2022-09-07T18:22:39.130Z,14.25
2022-09-07T18:25:10.326Z,18.77
2022-09-07T18:27:42.332Z,13.35
2022-09-07T18:30:12.649Z,10.30
2022-09-07T18:32:41.950Z,14.48
2022-09-07T18:35:11.757Z,8.13
2022-09-07T18:37:40.903Z,13.25
2022-09-07T18:40:10.978Z,12.93
2022-09-07T18:42:42.390Z,11.23
2022-09-07T18:45:27.903Z,14.55
2022-09-07T18:47:57.294Z,16.05
2022-09-07T18:50:27.267Z,15.02
2022-09-07T18:53:04.120Z,20.15
2022-09-07T18:55:36.655Z,12.48
2022-09-07T18:58:07.303Z,14.82
2022-09-07T19:00:36.587Z,17.13
2022-09-07T19:03:05.874Z,15.00
2022-09-07T19:05:50.927Z,15.30
2022-09-07T19:10:50.790Z,13.85
2022-09-07T19:13:21.493Z,18.70
2022-09-07T19:15:51.642Z,16.73
2022-09-07T19:18:20.758Z,17.35
2022-09-07T19:20:49.955Z,16.75
2022-09-07T19:23:19.042Z,23.42
2022-09-07T19:25:48.430Z,17.30
2022-09-07T19:28:19.561Z,20.67
2022-09-07T19:30:50.202Z,17.02
2022-09-07T19:33:19.566Z,15.07
2022-09-07T19:35:48.742Z,7.75
2022-09-07T19:38:18.864Z,15.10
2022-09-07T19:40:57.862Z,15.48
2022-09-07T19:43:27.807Z,18.52
2022-09-07T19:45:59.828Z,13.20
2022-09-07T19:48:29.483Z,13.32
2022-09-07T19:51:03.990Z,13.73
2022-09-07T19:53:34.634Z,12.45
2022-09-07T19:56:08.880Z,13.45
2022-09-07T19:58:40.989Z,15.73
2022-09-07T20:01:14.256Z,8.00
2022-09-07T20:03:44.267Z,17.08
2022-09-07T20:06:15.591Z,17.65
2022-09-07T20:08:45.454Z,13.60
2022-09-07T20:11:17.507Z,10.50
2022-09-07T20:13:47.093Z,15.63
2022-09-07T20:16:19.916Z,12.68
2022-09-07T20:18:49.588Z,16.02
2022-09-07T20:21:20.784Z,11.43
2022-09-07T20:23:50.266Z,13.25
2022-09-07T20:26:21.437Z,7.43
2022-09-07T20:29:16.374Z,12.07
2022-09-07T20:31:46.329Z,16.80
2022-09-07T20:34:15.705Z,10.57
2022-09-07T20:36:44.868Z,15.00
2022-09-07T20:39:17.321Z,11.20
2022-09-07T20:41:46.686Z,9.70
2022-09-07T20:44:16.721Z,5.93
2022-09-07T20:46:47.457Z,7.45
2022-09-07T20:49:16.731Z,16.08
2022-09-07T20:51:45.863Z,9.70
2022-09-07T20:54:14.987Z,12.02
2022-09-07T20:56:44.184Z,9.55
2022-09-07T20:59:13.933Z,9.45
2022-09-07T21:01:44.177Z,15.52
2022-09-07T21:04:14.971Z,7.50
2022-09-07T21:06:44.101Z,10.98
2022-09-07T21:09:13.193Z,10.85
2022-09-07T21:11:45.093Z,11.98
2022-09-07T21:14:18.210Z,5.07
2022-09-07T21:16:47.704Z,4.28
2022-09-07T21:19:18.322Z,6.53
2022-09-07T21:21:48.108Z,5.05
2022-09-07T21:24:19.517Z,5.75
2022-09-07T21:26:49.505Z,11.77
2022-09-07T21:29:20.103Z,4.95
2022-09-07T21:31:49.895Z,10.25
2022-09-07T21:34:20.621Z,5.03
2022-09-07T21:36:50.273Z,1.92
2022-09-07T21:39:19.818Z,7.30
2022-09-07T21:41:49.015Z,3.72
2022-09-07T21:44:18.580Z,4.82
2022-09-07T21:46:47.844Z,7.75
2022-09-07T21:49:17.116Z,2.03
2022-09-07T21:51:47.749Z,2.58
2022-09-07T21:54:16.890Z,6.85
2022-09-07T21:56:46.945Z,4.18
2022-09-07T21:59:16.306Z,2.20
2022-09-07T22:01:45.563Z,5.35
2022-09-07T22:04:15.276Z,4.97
2022-09-07T22:06:44.630Z,1.65
2022-09-07T22:09:16.235Z,7.90
2022-09-07T22:11:46.203Z,4.65
2022-09-07T22:14:17.117Z,2.47
2022-09-07T22:16:46.436Z,4.88
2022-09-07T22:19:15.590Z,3.33
2022-09-07T22:21:44.936Z,4.05
2022-09-07T22:24:16.230Z,5.47
2022-09-07T22:26:45.393Z,4.88
2022-09-07T22:29:15.101Z,4.60
2022-09-07T22:31:44.333Z,2.22
2022-09-07T22:34:13.572Z,4.05
2022-09-07T22:36:45.273Z,4.15
2022-09-07T22:39:18.873Z,6.65
2022-09-07T22:41:49.268Z,7.30
2022-09-07T22:44:20.311Z,3.58
2022-09-07T22:46:49.777Z,5.72
2022-09-07T22:49:19.062Z,0.95
2022-09-07T22:51:48.418Z,1.88
2022-09-07T22:54:19.082Z,2.78
2022-09-07T22:56:48.430Z,2.38
2022-09-07T22:59:17.644Z,2.35
2022-09-07T23:01:47.445Z,4.03
2022-09-07T23:04:16.717Z,0.73
2022-09-07T23:06:46.035Z,1.58
2022-09-07T23:09:17.262Z,0.60
2022-09-07T23:11:49.125Z,3.30
2022-09-07T23:14:19.776Z,3.80
2022-09-07T23:16:49.111Z,1.58
2022-09-07T23:19:20.085Z,5.57
2022-09-07T23:21:49.514Z,2.55
2022-09-07T23:24:20.406Z,3.10
2022-09-07T23:26:51.325Z,1.23
2022-09-07T23:29:21.588Z,7.20
2022-09-07T23:31:50.815Z,5.32
2022-09-07T23:34:20.094Z,4.03
2022-09-07T23:36:49.394Z,2.17
2022-09-07T23:39:19.152Z,6.25
2022-09-07T23:41:48.328Z,1.63
2022-09-07T23:44:19.024Z,10.45
2022-09-07T23:46:49.285Z,5.50
2022-09-07T23:49:18.511Z,2.45
2022-09-07T23:51:48.808Z,2.15
2022-09-07T23:54:18.031Z,4.20
2022-09-07T23:56:47.228Z,2.45
2022-09-07T23:59:16.389Z,3.38
